sensor_id;sensor_type;location;lat;lon;timestamp;pressure;altitude;pressure_sealevel;temperature;humidity
30730;BME280;17476;48.458;7.928;2023-02-19T00:01:29;100673.19;;;11.90;76.86
30730;BME280;17476;48.458;7.928;2023-02-19T00:04:08;100670.56;;;11.90;77.05
30730;BME280;17476;48.458;7.928;2023-02-19T00:06:36;100670.25;;;11.93;76.89
30730;BME280;17476;48.458;7.928;2023-02-19T00:09:03;100678.94;;;11.94;76.76
30730;BME280;17476;48.458;7.928;2023-02-19T00:11:33;100674.38;;;11.96;76.73
30730;BME280;17476;48.458;7.928;2023-02-19T00:14:01;100682.69;;;11.91;76.85
30730;BME280;17476;48.458;7.928;2023-02-19T00:16:31;100683.50;;;11.92;76.96
30730;BME280;17476;48.458;7.928;2023-02-19T00:18:59;100681.03;;;11.90;78.35
30730;BME280;17476;48.458;7.928;2023-02-19T00:21:25;100679.59;;;11.96;77.35
30730;BME280;17476;48.458;7.928;2023-02-19T00:24:01;100674.16;;;11.89;77.08
30730;BME280;17476;48.458;7.928;2023-02-19T00:26:27;100669.38;;;11.85;77.47
30730;BME280;17476;48.458;7.928;2023-02-19T00:28:55;100669.06;;;11.88;77.60
30730;BME280;17476;48.458;7.928;2023-02-19T00:31:25;100675.59;;;11.84;77.92
30730;BME280;17476;48.458;7.928;2023-02-19T00:33:55;100678.38;;;11.82;78.59
30730;BME280;17476;48.458;7.928;2023-02-19T00:36:21;100679.78;;;11.76;78.17
30730;BME280;17476;48.458;7.928;2023-02-19T00:38:48;100687.78;;;11.75;78.34
30730;BME280;17476;48.458;7.928;2023-02-19T00:41:15;100681.41;;;11.77;78.38
30730;BME280;17476;48.458;7.928;2023-02-19T00:43:58;100677.31;;;11.75;79.22
30730;BME280;17476;48.458;7.928;2023-02-19T00:46:31;100686.59;;;11.69;79.81
30730;BME280;17476;48.458;7.928;2023-02-19T00:48:58;100692.28;;;11.65;80.37
30730;BME280;17476;48.458;7.928;2023-02-19T00:51:27;100688.03;;;11.64;80.18
30730;BME280;17476;48.458;7.928;2023-02-19T00:53:53;100675.91;;;11.63;80.36
30730;BME280;17476;48.458;7.928;2023-02-19T00:56:19;100671.97;;;11.59;80.33
30730;BME280;17476;48.458;7.928;2023-02-19T00:58:46;100674.63;;;11.67;79.20
30730;BME280;17476;48.458;7.928;2023-02-19T01:01:12;100671.63;;;11.62;79.37
30730;BME280;17476;48.458;7.928;2023-02-19T01:03:39;100666.41;;;11.62;79.55
30730;BME280;17476;48.458;7.928;2023-02-19T01:06:07;100654.22;;;11.53;79.99
30730;BME280;17476;48.458;7.928;2023-02-19T01:08:33;100661.78;;;11.56;80.33
30730;BME280;17476;48.458;7.928;2023-02-19T01:11:00;100665.81;;;11.50;80.22
30730;BME280;17476;48.458;7.928;2023-02-19T01:13:27;100664.16;;;11.49;80.55
30730;BME280;17476;48.458;7.928;2023-02-19T01:16:20;100670.28;;;11.58;78.77
30730;BME280;17476;48.458;7.928;2023-02-19T01:18:47;100668.97;;;11.54;78.32
30730;BME280;17476;48.458;7.928;2023-02-19T01:21:19;100664.31;;;11.47;78.65
30730;BME280;17476;48.458;7.928;2023-02-19T01:23:46;100665.81;;;11.50;78.31
30730;BME280;17476;48.458;7.928;2023-02-19T01:26:17;100662.38;;;11.49;77.06
30730;BME280;17476;48.458;7.928;2023-02-19T01:28:43;100671.88;;;11.51;77.95
30730;BME280;17476;48.458;7.928;2023-02-19T01:31:14;100668.59;;;11.48;77.26
30730;BME280;17476;48.458;7.928;2023-02-19T01:33:48;100672.63;;;11.61;77.14
30730;BME280;17476;48.458;7.928;2023-02-19T01:36:14;100668.66;;;11.57;76.26
30730;BME280;17476;48.458;7.928;2023-02-19T01:38:41;100673.53;;;11.52;76.48
30730;BME280;17476;48.458;7.928;2023-02-19T01:41:10;100672.41;;;11.54;76.50
30730;BME280;17476;48.458;7.928;2023-02-19T01:46:31;100677.66;;;11.54;76.20
30730;BME280;17476;48.458;7.928;2023-02-19T01:51:51;100669.34;;;11.41;77.07
30730;BME280;17476;48.458;7.928;2023-02-19T01:54:21;100671.44;;;11.37;77.24
30730;BME280;17476;48.458;7.928;2023-02-19T01:56:48;100665.53;;;11.35;77.11
30730;BME280;17476;48.458;7.928;2023-02-19T01:59:15;100671.09;;;11.32;77.11
30730;BME280;17476;48.458;7.928;2023-02-19T02:01:42;100672.19;;;11.30;77.59
30730;BME280;17476;48.458;7.928;2023-02-19T02:04:11;100684.31;;;11.31;76.71
30730;BME280;17476;48.458;7.928;2023-02-19T02:06:51;100679.06;;;11.31;77.70
30730;BME280;17476;48.458;7.928;2023-02-19T02:09:25;100680.19;;;11.28;77.13
30730;BME280;17476;48.458;7.928;2023-02-19T02:12:10;100687.53;;;11.25;77.74
30730;BME280;17476;48.458;7.928;2023-02-19T02:14:41;100686.34;;;11.19;77.86
30730;BME280;17476;48.458;7.928;2023-02-19T02:17:14;100679.47;;;11.18;78.16
30730;BME280;17476;48.458;7.928;2023-02-19T02:20:31;100672.44;;;11.18;78.07
30730;BME280;17476;48.458;7.928;2023-02-19T02:23:34;100678.09;;;11.14;78.72
30730;BME280;17476;48.458;7.928;2023-02-19T02:26:30;100677.13;;;11.15;80.54
30730;BME280;17476;48.458;7.928;2023-02-19T02:29:45;100673.78;;;11.05;82.02
30730;BME280;17476;48.458;7.928;2023-02-19T02:32:24;100664.25;;;11.04;83.56
30730;BME280;17476;48.458;7.928;2023-02-19T02:34:58;100669.16;;;10.89;85.45
30730;BME280;17476;48.458;7.928;2023-02-19T02:37:27;100664.69;;;10.81;87.58
30730;BME280;17476;48.458;7.928;2023-02-19T02:39:56;100651.28;;;10.66;88.74
30730;BME280;17476;48.458;7.928;2023-02-19T02:42:23;100636.91;;;10.53;89.98
30730;BME280;17476;48.458;7.928;2023-02-19T02:44:56;100642.66;;;10.56;89.60
30730;BME280;17476;48.458;7.928;2023-02-19T02:47:54;100628.31;;;10.60;88.17
30730;BME280;17476;48.458;7.928;2023-02-19T02:50:49;100632.97;;;10.66;87.90
30730;BME280;17476;48.458;7.928;2023-02-19T02:53:31;100634.44;;;10.69;88.90
30730;BME280;17476;48.458;7.928;2023-02-19T02:56:19;100642.06;;;10.62;89.76
30730;BME280;17476;48.458;7.928;2023-02-19T02:58:54;100637.28;;;10.58;89.69
30730;BME280;17476;48.458;7.928;2023-02-19T03:01:29;100636.97;;;10.61;89.09
30730;BME280;17476;48.458;7.928;2023-02-19T03:04:51;100637.06;;;10.69;88.37
30730;BME280;17476;48.458;7.928;2023-02-19T03:13:25;100646.19;;;10.65;88.41
30730;BME280;17476;48.458;7.928;2023-02-19T03:16:25;100648.50;;;10.68;87.46
30730;BME280;17476;48.458;7.928;2023-02-19T03:19:15;100645.63;;;10.71;88.10
30730;BME280;17476;48.458;7.928;2023-02-19T03:22:19;100650.03;;;10.71;87.65
30730;BME280;17476;48.458;7.928;2023-02-19T03:25:00;100646.56;;;10.70;88.30
30730;BME280;17476;48.458;7.928;2023-02-19T03:27:48;100636.56;;;10.65;88.19
30730;BME280;17476;48.458;7.928;2023-02-19T03:30:27;100637.66;;;10.63;87.63
30730;BME280;17476;48.458;7.928;2023-02-19T03:33:11;100643.44;;;10.66;88.60
30730;BME280;17476;48.458;7.928;2023-02-19T03:35:57;100636.56;;;10.65;88.09
30730;BME280;17476;48.458;7.928;2023-02-19T03:38:47;100644.00;;;10.60;88.16
30730;BME280;17476;48.458;7.928;2023-02-19T03:44:12;100647.06;;;10.56;88.08
30730;BME280;17476;48.458;7.928;2023-02-19T03:52:41;100653.16;;;10.47;88.95
30730;BME280;17476;48.458;7.928;2023-02-19T03:55:15;100649.56;;;10.48;88.86
30730;BME280;17476;48.458;7.928;2023-02-19T03:57:52;100648.50;;;10.41;88.51
30730;BME280;17476;48.458;7.928;2023-02-19T04:00:39;100654.88;;;10.38;88.24
30730;BME280;17476;48.458;7.928;2023-02-19T04:06:31;100645.47;;;10.45;88.25
30730;BME280;17476;48.458;7.928;2023-02-19T04:09:01;100657.97;;;10.51;88.01
30730;BME280;17476;48.458;7.928;2023-02-19T04:11:29;100657.00;;;10.52;87.05
30730;BME280;17476;48.458;7.928;2023-02-19T04:14:19;100660.72;;;10.50;87.02
30730;BME280;17476;48.458;7.928;2023-02-19T04:16:53;100661.31;;;10.44;87.31
30730;BME280;17476;48.458;7.928;2023-02-19T04:19:25;100662.22;;;10.52;87.05
30730;BME280;17476;48.458;7.928;2023-02-19T04:21:53;100666.25;;;10.47;87.75
30730;BME280;17476;48.458;7.928;2023-02-19T04:24:47;100677.13;;;10.42;87.69
30730;BME280;17476;48.458;7.928;2023-02-19T04:27:14;100690.06;;;10.44;88.60
30730;BME280;17476;48.458;7.928;2023-02-19T04:29:41;100690.66;;;10.37;88.70
30730;BME280;17476;48.458;7.928;2023-02-19T04:32:10;100692.44;;;10.37;89.74
30730;BME280;17476;48.458;7.928;2023-02-19T04:34:41;100697.78;;;10.35;89.06
30730;BME280;17476;48.458;7.928;2023-02-19T04:37:07;100695.19;;;10.35;89.25
30730;BME280;17476;48.458;7.928;2023-02-19T04:39:33;100705.94;;;10.32;89.16
30730;BME280;17476;48.458;7.928;2023-02-19T04:41:59;100703.31;;;10.32;90.05
30730;BME280;17476;48.458;7.928;2023-02-19T04:44:25;100706.59;;;10.34;90.00
30730;BME280;17476;48.458;7.928;2023-02-19T04:46:50;100703.59;;;10.29;90.33
30730;BME280;17476;48.458;7.928;2023-02-19T04:49:16;100707.06;;;10.30;91.27
30730;BME280;17476;48.458;7.928;2023-02-19T04:51:42;100713.09;;;10.30;91.30
30730;BME280;17476;48.458;7.928;2023-02-19T04:54:08;100728.91;;;10.19;91.21
30730;BME280;17476;48.458;7.928;2023-02-19T04:56:34;100725.34;;;10.20;92.10
30730;BME280;17476;48.458;7.928;2023-02-19T04:59:00;100736.47;;;10.22;91.46
30730;BME280;17476;48.458;7.928;2023-02-19T05:01:25;100737.88;;;10.26;91.82
30730;BME280;17476;48.458;7.928;2023-02-19T05:03:51;100741.47;;;10.25;91.66
30730;BME280;17476;48.458;7.928;2023-02-19T05:06:17;100750.13;;;10.16;92.33
30730;BME280;17476;48.458;7.928;2023-02-19T05:08:43;100750.38;;;10.13;93.32
30730;BME280;17476;48.458;7.928;2023-02-19T05:11:10;100759.88;;;10.14;93.14
30730;BME280;17476;48.458;7.928;2023-02-19T05:13:38;100758.38;;;10.11;92.65
30730;BME280;17476;48.458;7.928;2023-02-19T05:16:10;100761.53;;;10.15;92.43
30730;BME280;17476;48.458;7.928;2023-02-19T05:18:41;100761.00;;;10.11;93.19
30730;BME280;17476;48.458;7.928;2023-02-19T05:21:09;100765.66;;;10.08;93.13
30730;BME280;17476;48.458;7.928;2023-02-19T05:23:35;100762.78;;;10.11;92.52
30730;BME280;17476;48.458;7.928;2023-02-19T05:26:11;100769.09;;;10.08;93.85
30730;BME280;17476;48.458;7.928;2023-02-19T05:28:37;100764.97;;;10.06;92.84
30730;BME280;17476;48.458;7.928;2023-02-19T05:31:06;100764.44;;;10.12;92.05
30730;BME280;17476;48.458;7.928;2023-02-19T05:33:33;100771.31;;;10.23;91.25
30730;BME280;17476;48.458;7.928;2023-02-19T05:36:02;100771.97;;;10.15;92.31
30730;BME280;17476;48.458;7.928;2023-02-19T05:38:28;100778.72;;;10.08;92.89
30730;BME280;17476;48.458;7.928;2023-02-19T05:40:54;100789.88;;;10.10;93.55
30730;BME280;17476;48.458;7.928;2023-02-19T05:43:20;100781.06;;;10.11;92.28
30730;BME280;17476;48.458;7.928;2023-02-19T05:45:46;100783.97;;;10.18;91.77
30730;BME280;17476;48.458;7.928;2023-02-19T05:48:12;100787.13;;;10.11;91.96
30730;BME280;17476;48.458;7.928;2023-02-19T05:50:38;100782.56;;;10.13;91.69
30730;BME280;17476;48.458;7.928;2023-02-19T05:53:04;100792.22;;;10.13;91.43
30730;BME280;17476;48.458;7.928;2023-02-19T05:55:34;100790.56;;;10.12;91.00
30730;BME280;17476;48.458;7.928;2023-02-19T05:58:00;100796.47;;;10.14;91.31
30730;BME280;17476;48.458;7.928;2023-02-19T06:00:26;100796.47;;;10.14;90.23
30730;BME280;17476;48.458;7.928;2023-02-19T06:02:53;100792.22;;;10.13;92.21
30730;BME280;17476;48.458;7.928;2023-02-19T06:05:19;100795.94;;;10.10;91.66
30730;BME280;17476;48.458;7.928;2023-02-19T06:07:45;100800.19;;;10.11;92.81
30730;BME280;17476;48.458;7.928;2023-02-19T06:10:11;100800.34;;;10.00;92.22
30730;BME280;17476;48.458;7.928;2023-02-19T06:12:38;100810.78;;;10.00;92.73
30730;BME280;17476;48.458;7.928;2023-02-19T06:15:05;100810.38;;;10.05;91.30
30730;BME280;17476;48.458;7.928;2023-02-19T06:17:32;100810.78;;;10.10;90.75
30730;BME280;17476;48.458;7.928;2023-02-19T06:19:59;100811.72;;;10.09;91.35
30730;BME280;17476;48.458;7.928;2023-02-19T06:22:26;100820.53;;;10.08;91.13
30730;BME280;17476;48.458;7.928;2023-02-19T06:24:51;100818.75;;;10.08;92.04
30730;BME280;17476;48.458;7.928;2023-02-19T06:27:17;100815.34;;;9.98;92.80
30730;BME280;17476;48.458;7.928;2023-02-19T06:29:43;100822.50;;;9.96;92.42
30730;BME280;17476;48.458;7.928;2023-02-19T06:32:09;100827.16;;;9.93;93.48
30730;BME280;17476;48.458;7.928;2023-02-19T06:34:35;100825.09;;;9.96;93.01
30730;BME280;17476;48.458;7.928;2023-02-19T06:37:01;100817.38;;;9.95;92.91
30730;BME280;17476;48.458;7.928;2023-02-19T06:39:27;100812.59;;;9.90;93.00
30730;BME280;17476;48.458;7.928;2023-02-19T06:41:57;100816.84;;;9.91;92.40
30730;BME280;17476;48.458;7.928;2023-02-19T06:44:23;100826.75;;;9.97;91.97
30730;BME280;17476;48.458;7.928;2023-02-19T06:46:50;100824.41;;;9.94;91.85
30730;BME280;17476;48.458;7.928;2023-02-19T06:49:18;100814.91;;;9.93;91.26
30730;BME280;17476;48.458;7.928;2023-02-19T06:51:44;100827.84;;;9.95;91.47
30730;BME280;17476;48.458;7.928;2023-02-19T06:54:10;100834.16;;;10.02;91.84
30730;BME280;17476;48.458;7.928;2023-02-19T06:56:40;100828.66;;;10.05;90.91
30730;BME280;17476;48.458;7.928;2023-02-19T06:59:10;100830.72;;;9.92;91.23
30730;BME280;17476;48.458;7.928;2023-02-19T07:01:37;100834.03;;;9.94;91.95
30730;BME280;17476;48.458;7.928;2023-02-19T07:04:05;100841.47;;;9.98;91.98
30730;BME280;17476;48.458;7.928;2023-02-19T07:06:33;100842.44;;;9.97;91.60
30730;BME280;17476;48.458;7.928;2023-02-19T07:08:59;100835.84;;;10.03;90.87
30730;BME280;17476;48.458;7.928;2023-02-19T07:11:30;100851.09;;;9.98;91.51
30730;BME280;17476;48.458;7.928;2023-02-19T07:14:02;100856.16;;;9.99;91.10
30730;BME280;17476;48.458;7.928;2023-02-19T07:16:28;100857.94;;;10.08;90.79
30730;BME280;17476;48.458;7.928;2023-02-19T07:18:59;100872.28;;;10.04;90.38
30730;BME280;17476;48.458;7.928;2023-02-19T07:21:26;100874.88;;;10.04;90.17
30730;BME280;17476;48.458;7.928;2023-02-19T07:23:52;100876.25;;;9.99;90.24
30730;BME280;17476;48.458;7.928;2023-02-19T07:26:20;100881.09;;;10.03;90.48
30730;BME280;17476;48.458;7.928;2023-02-19T07:28:48;100881.34;;;10.00;91.67
30730;BME280;17476;48.458;7.928;2023-02-19T07:31:16;100879.69;;;10.09;89.88
30730;BME280;17476;48.458;7.928;2023-02-19T07:33:43;100881.47;;;10.08;90.56
30730;BME280;17476;48.458;7.928;2023-02-19T07:36:10;100884.66;;;10.12;89.33
30730;BME280;17476;48.458;7.928;2023-02-19T07:38:36;100882.44;;;10.07;89.65
30730;BME280;17476;48.458;7.928;2023-02-19T07:41:03;100869.94;;;10.11;89.43
30730;BME280;17476;48.458;7.928;2023-02-19T07:43:33;100870.63;;;10.13;89.45
30730;BME280;17476;48.458;7.928;2023-02-19T07:46:07;100873.22;;;10.13;88.99
30730;BME280;17476;48.458;7.928;2023-02-19T07:48:34;100879.03;;;10.17;88.44
30730;BME280;17476;48.458;7.928;2023-02-19T07:51:02;100885.34;;;10.14;89.21
30730;BME280;17476;48.458;7.928;2023-02-19T07:53:29;100888.78;;;10.15;89.45
30730;BME280;17476;48.458;7.928;2023-02-19T07:56:03;100897.19;;;10.18;89.72
30730;BME280;17476;48.458;7.928;2023-02-19T07:58:30;100893.31;;;10.22;89.30
30730;BME280;17476;48.458;7.928;2023-02-19T08:00:56;100893.75;;;10.27;90.24
30730;BME280;17476;48.458;7.928;2023-02-19T08:03:22;100896.50;;;10.26;89.42
30730;BME280;17476;48.458;7.928;2023-02-19T08:05:48;100896.38;;;10.27;88.90
30730;BME280;17476;48.458;7.928;2023-02-19T08:08:16;100895.41;;;10.28;89.74
30730;BME280;17476;48.458;7.928;2023-02-19T08:10:42;100890.31;;;10.27;90.06
30730;BME280;17476;48.458;7.928;2023-02-19T08:13:37;100880.00;;;10.25;89.55
30730;BME280;17476;48.458;7.928;2023-02-19T08:18:31;100900.53;;;10.30;89.42
30730;BME280;17476;48.458;7.928;2023-02-19T08:20:58;100901.34;;;10.30;89.67
30730;BME280;17476;48.458;7.928;2023-02-19T08:23:26;100916.75;;;10.43;89.40
30730;BME280;17476;48.458;7.928;2023-02-19T08:25:55;100916.88;;;10.42;89.00
30730;BME280;17476;48.458;7.928;2023-02-19T08:28:22;100925.00;;;10.38;89.59
30730;BME280;17476;48.458;7.928;2023-02-19T08:30:48;100928.69;;;10.36;90.04
30730;BME280;17476;48.458;7.928;2023-02-19T08:33:20;100923.34;;;10.28;91.28
30730;BME280;17476;48.458;7.928;2023-02-19T08:35:46;100917.28;;;10.27;91.14
30730;BME280;17476;48.458;7.928;2023-02-19T08:38:13;100920.03;;;10.26;90.59
30730;BME280;17476;48.458;7.928;2023-02-19T08:40:41;100921.16;;;10.33;90.82
30730;BME280;17476;48.458;7.928;2023-02-19T08:43:13;100925.97;;;10.37;91.24
30730;BME280;17476;48.458;7.928;2023-02-19T08:45:42;100926.09;;;10.46;90.24
30730;BME280;17476;48.458;7.928;2023-02-19T08:48:10;100927.06;;;10.54;88.57
30730;BME280;17476;48.458;7.928;2023-02-19T08:50:36;100930.06;;;10.50;88.25
30730;BME280;17476;48.458;7.928;2023-02-19T08:53:04;100938.34;;;10.55;88.51
30730;BME280;17476;48.458;7.928;2023-02-19T08:55:31;100935.03;;;10.53;89.03
30730;BME280;17476;48.458;7.928;2023-02-19T08:57:57;100939.31;;;10.54;89.77
30730;BME280;17476;48.458;7.928;2023-02-19T09:00:24;100949.78;;;10.54;89.07
30730;BME280;17476;48.458;7.928;2023-02-19T09:02:49;100953.50;;;10.51;89.56
30730;BME280;17476;48.458;7.928;2023-02-19T09:05:16;100953.75;;;10.48;90.01
30730;BME280;17476;48.458;7.928;2023-02-19T09:07:42;100947.84;;;10.36;91.31
30730;BME280;17476;48.458;7.928;2023-02-19T09:10:12;100947.44;;;10.41;90.69
30730;BME280;17476;48.458;7.928;2023-02-19T09:12:38;100947.56;;;10.39;92.56
30730;BME280;17476;48.458;7.928;2023-02-19T09:15:05;100947.69;;;10.48;91.80
30730;BME280;17476;48.458;7.928;2023-02-19T09:17:31;100959.81;;;10.49;91.53
30730;BME280;17476;48.458;7.928;2023-02-19T09:19:57;100958.16;;;10.48;91.65
30730;BME280;17476;48.458;7.928;2023-02-19T09:22:23;100959.00;;;10.58;90.59
30730;BME280;17476;48.458;7.928;2023-02-19T09:24:49;100960.91;;;10.56;90.25
30730;BME280;17476;48.458;7.928;2023-02-19T09:27:18;100960.34;;;10.62;90.66
30730;BME280;17476;48.458;7.928;2023-02-19T09:29:45;100955.41;;;10.49;91.96
30730;BME280;17476;48.458;7.928;2023-02-19T09:32:11;100952.41;;;10.44;91.47
30730;BME280;17476;48.458;7.928;2023-02-19T09:34:37;100959.81;;;10.49;91.69
30730;BME280;17476;48.458;7.928;2023-02-19T09:37:07;100954.56;;;10.49;92.58
30730;BME280;17476;48.458;7.928;2023-02-19T09:39:34;100943.16;;;10.50;91.88
30730;BME280;17476;48.458;7.928;2023-02-19T09:42:08;100953.63;;;10.59;91.03
30730;BME280;17476;48.458;7.928;2023-02-19T09:44:39;100959.66;;;10.70;91.01
30730;BME280;17476;48.458;7.928;2023-02-19T09:47:27;100949.34;;;10.78;89.79
30730;BME280;17476;48.458;7.928;2023-02-19T09:49:59;100951.94;;;10.87;89.10
30730;BME280;17476;48.458;7.928;2023-02-19T09:52:41;100958.94;;;10.97;88.54
30730;BME280;17476;48.458;7.928;2023-02-19T09:57:58;100971.47;;;11.03;87.61
30730;BME280;17476;48.458;7.928;2023-02-19T10:00:30;100974.91;;;11.03;86.24
30730;BME280;17476;48.458;7.928;2023-02-19T10:03:09;100979.59;;;11.00;85.98
30730;BME280;17476;48.458;7.928;2023-02-19T10:05:37;100982.75;;;11.03;86.49
30730;BME280;17476;48.458;7.928;2023-02-19T10:08:08;100988.53;;;11.07;86.42
30730;BME280;17476;48.458;7.928;2023-02-19T10:10:37;100996.09;;;11.10;85.96
30730;BME280;17476;48.458;7.928;2023-02-19T10:13:22;100987.47;;;11.00;87.04
30730;BME280;17476;48.458;7.928;2023-02-19T10:15:57;100991.84;;;11.09;86.75
30730;BME280;17476;48.458;7.928;2023-02-19T10:18:27;100998.59;;;11.11;86.19
30730;BME280;17476;48.458;7.928;2023-02-19T10:20:54;100999.44;;;11.12;86.43
30730;BME280;17476;48.458;7.928;2023-02-19T10:23:21;100998.47;;;11.13;86.79
30730;BME280;17476;48.458;7.928;2023-02-19T10:25:55;101010.03;;;11.01;86.81
30730;BME280;17476;48.458;7.928;2023-02-19T10:28:32;101008.81;;;10.95;86.53
30730;BME280;17476;48.458;7.928;2023-02-19T10:31:02;101012.66;;;11.01;86.05
30730;BME280;17476;48.458;7.928;2023-02-19T10:33:28;101011.97;;;11.08;87.24
30730;BME280;17476;48.458;7.928;2023-02-19T10:36:00;101010.59;;;11.14;86.98
30730;BME280;17476;48.458;7.928;2023-02-19T10:38:36;101015.53;;;11.27;87.21
30730;BME280;17476;48.458;7.928;2023-02-19T10:41:18;101016.88;;;11.31;87.19
30730;BME280;17476;48.458;7.928;2023-02-19T10:44:05;101014.09;;;11.42;86.09
30730;BME280;17476;48.458;7.928;2023-02-19T10:46:35;101022.81;;;11.33;85.38
30730;BME280;17476;48.458;7.928;2023-02-19T10:49:36;101020.19;;;11.33;85.70
30730;BME280;17476;48.458;7.928;2023-02-19T10:52:19;101028.16;;;11.41;83.82
30730;BME280;17476;48.458;7.928;2023-02-19T10:55:13;101022.91;;;11.41;82.73
30730;BME280;17476;48.458;7.928;2023-02-19T10:57:39;101026.78;;;11.46;82.96
30730;BME280;17476;48.458;7.928;2023-02-19T11:00:22;101021.53;;;11.46;82.44
30730;BME280;17476;48.458;7.928;2023-02-19T11:03:19;101023.28;;;11.56;81.93
30730;BME280;17476;48.458;7.928;2023-02-19T11:08:24;101016.69;;;11.52;83.14
30730;BME280;17476;48.458;7.928;2023-02-19T11:10:50;101024.91;;;11.66;83.34
30730;BME280;17476;48.458;7.928;2023-02-19T11:13:30;101025.44;;;11.70;83.64
30730;BME280;17476;48.458;7.928;2023-02-19T11:15:58;101021.56;;;11.74;81.84
30730;BME280;17476;48.458;7.928;2023-02-19T11:18:34;101021.41;;;11.75;81.61
30730;BME280;17476;48.458;7.928;2023-02-19T11:21:03;101026.41;;;11.69;81.96
30730;BME280;17476;48.458;7.928;2023-02-19T11:23:43;101018.28;;;11.72;82.67
30730;BME280;17476;48.458;7.928;2023-02-19T11:26:23;101020.28;;;11.78;81.97
30730;BME280;17476;48.458;7.928;2023-02-19T11:29:10;101011.09;;;11.74;81.58
30730;BME280;17476;48.458;7.928;2023-02-19T11:31:37;101009.44;;;11.73;82.13
30730;BME280;17476;48.458;7.928;2023-02-19T11:34:26;101005.75;;;11.66;83.43
30730;BME280;17476;48.458;7.928;2023-02-19T11:37:19;101006.28;;;11.69;83.01
30730;BME280;17476;48.458;7.928;2023-02-19T11:39:49;101015.94;;;11.69;82.31
30730;BME280;17476;48.458;7.928;2023-02-19T11:42:36;101010.28;;;11.64;82.67
30730;BME280;17476;48.458;7.928;2023-02-19T11:48:35;101017.25;;;11.45;84.24
30730;BME280;17476;48.458;7.928;2023-02-19T11:53:55;101018.09;;;11.36;84.35
30730;BME280;17476;48.458;7.928;2023-02-19T11:56:39;101026.66;;;11.29;84.05
30730;BME280;17476;48.458;7.928;2023-02-19T11:59:37;101021.16;;;11.32;83.88
30730;BME280;17476;48.458;7.928;2023-02-19T12:10:44;101021.63;;;11.55;83.33
30730;BME280;17476;48.458;7.928;2023-02-19T12:13:25;101023.53;;;11.72;81.76
30730;BME280;17476;48.458;7.928;2023-02-19T12:15:59;101020.16;;;11.80;83.00
30730;BME280;17476;48.458;7.928;2023-02-19T12:33:45;100992.78;;;12.01;80.39
30730;BME280;17476;48.458;7.928;2023-02-19T12:36:34;100984.09;;;12.01;80.41
30730;BME280;17476;48.458;7.928;2023-02-19T12:42:10;100998.66;;;12.13;79.78
30730;BME280;17476;48.458;7.928;2023-02-19T12:44:56;100993.75;;;12.18;80.26
30730;BME280;17476;48.458;7.928;2023-02-19T12:47:31;100978.25;;;12.25;79.99
30730;BME280;17476;48.458;7.928;2023-02-19T12:50:20;100983.13;;;12.38;79.64
30730;BME280;17476;48.458;7.928;2023-02-19T12:52:51;100992.81;;;12.37;80.00
30730;BME280;17476;48.458;7.928;2023-02-19T12:55:34;100985.59;;;12.39;79.32
30730;BME280;17476;48.458;7.928;2023-02-19T12:58:03;100972.72;;;12.28;80.20
30730;BME280;17476;48.458;7.928;2023-02-19T13:00:43;100971.16;;;12.35;79.33
30730;BME280;17476;48.458;7.928;2023-02-19T13:03:15;100961.63;;;12.52;79.19
30730;BME280;17476;48.458;7.928;2023-02-19T13:09:12;100967.78;;;13.04;75.67
30730;BME280;17476;48.458;7.928;2023-02-19T13:11:52;100961.53;;;13.05;74.34
30730;BME280;17476;48.458;7.928;2023-02-19T13:14:35;100962.56;;;13.12;71.76
30730;BME280;17476;48.458;7.928;2023-02-19T13:19:49;100974.53;;;13.33;69.70
30730;BME280;17476;48.458;7.928;2023-02-19T13:23:00;100975.53;;;13.32;68.26
30730;BME280;17476;48.458;7.928;2023-02-19T13:31:53;100971.75;;;13.08;68.06
30730;BME280;17476;48.458;7.928;2023-02-19T13:34:50;100968.13;;;13.09;68.55
30730;BME280;17476;48.458;7.928;2023-02-19T13:37:21;100973.84;;;13.05;69.16
30730;BME280;17476;48.458;7.928;2023-02-19T13:39:52;100975.16;;;13.01;69.75
30730;BME280;17476;48.458;7.928;2023-02-19T13:42:26;100975.28;;;12.99;68.41
30730;BME280;17476;48.458;7.928;2023-02-19T13:44:53;100979.81;;;12.89;69.24
30730;BME280;17476;48.458;7.928;2023-02-19T13:50:35;100980.38;;;12.57;71.26
30730;BME280;17476;48.458;7.928;2023-02-19T13:53:47;100966.19;;;12.50;72.24
30730;BME280;17476;48.458;7.928;2023-02-19T13:55:50;100969.03;;;12.56;73.00
30730;BME280;17476;48.458;7.928;2023-02-19T14:01:09;100984.72;;;12.48;72.22
30730;BME280;17476;48.458;7.928;2023-02-19T14:03:55;100980.81;;;12.52;73.18
30730;BME280;17476;48.458;7.928;2023-02-19T14:12:18;100971.41;;;12.85;72.49
30730;BME280;17476;48.458;7.928;2023-02-19T14:14:54;100972.97;;;12.96;71.17
30730;BME280;17476;48.458;7.928;2023-02-19T14:17:41;100972.97;;;12.96;70.74
30730;BME280;17476;48.458;7.928;2023-02-19T14:33:33;100969.47;;;12.88;70.65
30730;BME280;17476;48.458;7.928;2023-02-19T14:36:16;100967.97;;;12.85;70.84
30730;BME280;17476;48.458;7.928;2023-02-19T14:38:59;100976.44;;;12.79;72.08
30730;BME280;17476;48.458;7.928;2023-02-19T14:41:27;100978.94;;;12.80;71.10
30730;BME280;17476;48.458;7.928;2023-02-19T14:43:56;100980.59;;;12.81;70.61
30730;BME280;17476;48.458;7.928;2023-02-19T14:46:40;100976.75;;;12.76;69.84
30730;BME280;17476;48.458;7.928;2023-02-19T14:49:40;100970.59;;;12.85;71.19
30730;BME280;17476;48.458;7.928;2023-02-19T14:52:39;100971.94;;;12.89;70.82
30730;BME280;17476;48.458;7.928;2023-02-19T14:57:47;100971.78;;;12.91;70.64
30730;BME280;17476;48.458;7.928;2023-02-19T15:00:35;100971.66;;;13.00;70.56
30730;BME280;17476;48.458;7.928;2023-02-19T15:03:04;100970.63;;;12.93;71.75
30730;BME280;17476;48.458;7.928;2023-02-19T15:05:36;100968.44;;;12.80;70.35